Terminal Aerodrome Forecast
Issued by NWS

Current Version | Previous Version | Text Only | Print | Product List | Glossary On
Versions: 1 2 3 4 5 6 7 8 9 10 11 12 13 14 15 16 17 18 19 20
000
FTUS43 KTOP 251128
TAFMHK
TAF
KMHK 251128Z 2512/2612 35010G21KT 5SM -SHRA SCT008 OVC010
     FM251500 36011G21KT P6SM VCSH OVC011
     FM251900 36010KT P6SM OVC015
     FM260400 35005KT P6SM OVC016=

USA.gov is the U.S. government's official web portal to all federal, state and local government web resources and services.